Time;durP1;ratioP1;P1;durP2;ratioP2;P2;SDS_P1;SDS_P2;PMS_P1;PMS_P2;Temp;Humidity;BMP_temperature;BMP_pressure;BME280_temperature;BME280_humidity;BME280_pressure;Samples;Min_cycle;Max_cycle;Signal;HPM_P1;HPM_P2
2021/03/29 00:00:19;;;;;;;75.62;36.28;;;;;;;-0.11;72.99;99492.44;1826617;77;21491;-73
2021/03/29 00:02:47;;;;;;;75.70;36.53;;;;;;;-0.12;74.71;99491.61;1826569;78;21078;-73
2021/03/29 00:05:16;;;;;;;72.10;34.83;;;;;;;-0.13;75.25;99492.62;1826533;77;21106;-73
2021/03/29 00:07:45;;;;;;;82.65;38.00;;;;;;;-0.10;75.50;99494.92;1826083;78;22067;-73
2021/03/29 00:10:12;;;;;;;74.17;34.83;;;;;;;-0.08;74.95;99492.11;1826579;77;21023;-73
2021/03/29 00:12:42;;;;;;;71.62;32.33;;;;;;;-0.09;74.90;99495.75;1826639;78;21467;-73
2021/03/29 00:15:12;;;;;;;71.10;33.08;;;;;;;-0.14;73.63;99494.95;1826589;77;21420;-73
2021/03/29 00:17:40;;;;;;;75.75;32.17;;;;;;;-0.17;73.84;99497.13;1821574;78;21078;-73
2021/03/29 00:20:11;;;;;;;62.13;27.98;;;;;;;-0.22;76.24;99507.50;1826497;77;22040;-72
2021/03/29 00:22:38;;;;;;;66.10;30.32;;;;;;;-0.22;75.88;99500.84;1826269;78;21101;-72
2021/03/29 00:25:05;;;;;;;58.08;28.12;;;;;;;-0.22;76.11;99504.83;1826593;77;21094;-72
2021/03/29 00:27:31;;;;;;;55.12;27.30;;;;;;;-0.21;76.91;99505.16;1826577;78;21110;-72
2021/03/29 00:29:57;;;;;;;56.65;28.27;;;;;;;-0.19;76.40;99513.80;1826430;77;21015;-72
2021/03/29 00:32:24;;;;;;;57.15;30.52;;;;;;;-0.13;75.87;99509.11;1826579;78;21195;-72
2021/03/29 00:34:50;;;;;;;60.23;28.38;;;;;;;-0.17;75.48;99511.30;1826549;77;21039;-72
2021/03/29 00:37:16;;;;;;;60.20;27.73;;;;;;;-0.15;73.78;99509.29;1826645;78;21106;-72
2021/03/29 00:39:42;;;;;;;65.05;33.25;;;;;;;-0.21;73.70;99512.64;1826479;77;21238;-72
2021/03/29 00:42:09;;;;;;;65.40;29.30;;;;;;;-0.31;76.50;99510.70;1794785;78;21554;-72
2021/03/29 00:44:35;;;;;;;62.73;28.05;;;;;;;-0.37;76.73;99514.88;1826555;77;22050;-72
2021/03/29 00:47:02;;;;;;;45.08;22.70;;;;;;;-0.38;76.75;99513.22;1826458;78;21136;-72
2021/03/29 00:49:28;;;;;;;47.15;21.52;;;;;;;-0.34;74.46;99514.55;1826537;77;21008;-72
2021/03/29 00:51:54;;;;;;;44.45;21.25;;;;;;;-0.40;74.73;99507.24;1826548;78;21113;-72
2021/03/29 00:54:20;;;;;;;45.52;21.15;;;;;;;-0.47;75.78;99509.44;1826521;78;21038;-72
2021/03/29 00:56:46;;;;;;;46.53;23.77;;;;;;;-0.43;74.41;99514.73;1826513;78;21291;-72
2021/03/29 00:59:12;;;;;;;49.10;22.60;;;;;;;-0.50;76.00;99515.95;1826529;78;21464;-72
2021/03/29 01:01:46;;;;;;;41.28;20.72;;;;;;;-0.47;74.00;99514.77;1826527;77;21046;-72
2021/03/29 01:04:12;;;;;;;43.55;22.55;;;;;;;-0.54;77.24;99515.94;1826529;78;21125;-73
2021/03/29 01:06:45;;;;;;;47.15;23.47;;;;;;;-0.51;77.01;99523.61;1826641;77;21026;-73
2021/03/29 01:09:18;;;;;;;49.13;23.42;;;;;;;-0.47;76.55;99520.09;1794534;78;21200;-73
2021/03/29 01:11:54;;;;;;;45.17;23.65;;;;;;;-0.51;77.71;99520.09;1826569;77;21132;-73
2021/03/29 01:14:31;;;;;;;45.67;24.27;;;;;;;-0.49;77.04;99518.94;1826529;78;21034;-71
2021/03/29 01:17:18;;;;;;;52.95;24.20;;;;;;;-0.45;75.78;99524.73;1826723;78;21031;-73
2021/03/29 01:20:04;;;;;;;40.20;19.45;;;;;;;-0.47;76.03;99526.75;1826793;77;21589;-72
2021/03/29 01:22:41;;;;;;;56.28;24.02;;;;;;;-0.45;74.83;99527.39;1826713;78;21194;-72
2021/03/29 01:25:27;;;;;;;41.13;21.35;;;;;;;-0.50;75.39;99512.45;1826680;77;21027;-72
2021/03/29 01:28:11;;;;;;;42.90;20.62;;;;;;;-0.49;76.67;99519.44;1826714;78;21078;-73
2021/03/29 01:30:38;;;;;;;46.30;21.70;;;;;;;-0.47;75.79;99527.58;1826600;77;21408;-72
2021/03/29 01:33:07;;;;;;;44.73;22.82;;;;;;;-0.51;76.84;99520.09;1821537;78;21106;-72
2021/03/29 01:35:44;;;;;;;54.50;23.02;;;;;;;-0.53;77.40;99518.94;1826743;77;21471;-72
2021/03/29 01:38:10;;;;;;;41.28;21.50;;;;;;;-0.57;78.11;99517.63;1826623;78;21074;-72
2021/03/29 01:40:39;;;;;;;44.77;23.40;;;;;;;-0.59;78.51;99519.64;1826627;77;21038;-72
2021/03/29 01:43:06;;;;;;;45.43;23.15;;;;;;;-0.62;79.25;99522.13;1826904;78;21114;-72
2021/03/29 01:45:33;;;;;;;39.95;19.55;;;;;;;-0.59;79.07;99524.97;1826647;77;21090;-72
2021/03/29 01:48:01;;;;;;;32.13;15.55;;;;;;;-0.52;78.15;99519.26;1826707;78;22041;-72
2021/03/29 01:50:29;;;;;;;44.85;22.73;;;;;;;-0.47;77.52;99518.25;1826568;77;21030;-72
2021/03/29 01:52:56;;;;;;;41.63;21.30;;;;;;;-0.49;78.92;99519.44;1826949;78;21094;-72
2021/03/29 01:55:23;;;;;;;34.40;17.80;;;;;;;-0.48;78.70;99519.26;1826594;77;21106;-72
2021/03/29 01:57:50;;;;;;;35.28;16.95;;;;;;;-0.44;76.89;99519.73;1826670;78;21094;-72
2021/03/29 02:00:25;;;;;;;34.85;17.40;;;;;;;-0.45;76.13;99514.08;1826622;77;22146;-72
2021/03/29 02:02:51;;;;;;;34.67;16.82;;;;;;;-0.53;75.96;99516.27;1825788;78;21554;-72
2021/03/29 02:05:18;;;;;;;40.10;19.10;;;;;;;-0.64;75.89;99511.33;1826696;77;21045;-72
2021/03/29 02:07:44;;;;;;;40.52;16.52;;;;;;;-0.66;76.32;99512.83;1821299;78;21085;-72
2021/03/29 02:10:16;;;;;;;34.58;18.40;;;;;;;-0.68;75.69;99511.36;1826574;77;21397;-72
2021/03/29 02:12:42;;;;;;;43.50;17.37;;;;;;;-0.70;77.23;99511.50;1826547;78;21252;-72
2021/03/29 02:15:16;;;;;;;40.80;17.42;;;;;;;-0.61;78.31;99507.80;1826608;77;21424;-72
2021/03/29 02:17:42;;;;;;;47.45;20.30;;;;;;;-0.57;78.58;99506.98;1826805;78;21542;-72
2021/03/29 02:20:16;;;;;;;30.43;16.30;;;;;;;-0.53;78.13;99510.12;1826556;77;21014;-72
2021/03/29 02:22:52;;;;;;;33.98;17.25;;;;;;;-0.49;77.28;99506.13;1826664;78;21108;-72
2021/03/29 02:25:19;;;;;;;54.67;21.87;;;;;;;-0.54;77.79;99505.80;1826597;77;21199;-72
2021/03/29 02:27:47;;;;;;;33.75;16.02;;;;;;;-0.54;77.86;99500.47;1826592;78;21126;-72
2021/03/29 02:30:17;;;;;;;36.17;17.42;;;;;;;-0.47;76.30;99499.61;1825543;77;21094;-72
2021/03/29 02:32:45;;;;;;;47.98;22.32;;;;;;;-0.57;75.87;99502.48;1824691;78;21125;-72
2021/03/29 02:35:12;;;;;;;54.77;21.68;;;;;;;-0.65;77.20;99503.84;1824689;77;21500;-72
2021/03/29 02:37:40;;;;;;;49.80;21.20;;;;;;;-0.60;77.57;99505.50;1824581;78;21130;-72
2021/03/29 02:40:07;;;;;;;47.70;21.20;;;;;;;-0.57;78.57;99506.98;1824542;77;21081;-72
2021/03/29 02:42:34;;;;;;;34.30;16.42;;;;;;;-0.47;78.09;99502.78;1824700;78;21090;-72
2021/03/29 02:45:00;;;;;;;26.87;14.30;;;;;;;-0.38;77.43;99501.23;1824550;77;21030;-72
2021/03/29 02:47:26;;;;;;;36.10;16.60;;;;;;;-0.26;76.23;99500.84;1824697;78;21531;-72
2021/03/29 02:49:52;;;;;;;31.97;14.20;;;;;;;-0.20;76.72;99492.16;1824624;77;21138;-72
2021/03/29 02:52:19;;;;;;;34.45;16.32;;;;;;;-0.13;76.18;99496.61;1824511;78;21161;-72
2021/03/29 02:54:46;;;;;;;34.70;18.92;;;;;;;-0.14;76.47;99498.13;1824545;77;21218;-72
2021/03/29 02:57:13;;;;;;;38.08;18.55;;;;;;;-0.09;75.97;99499.24;1824651;78;21113;-72
2021/03/29 02:59:39;;;;;;;30.27;13.95;;;;;;;-0.11;78.14;99499.93;1824550;77;21015;-72
2021/03/29 03:02:07;;;;;;;32.38;16.45;;;;;;;-0.03;76.82;99507.88;1824675;78;22030;-72
2021/03/29 03:04:33;;;;;;;33.15;20.20;;;;;;;-0.02;76.11;99506.04;1824456;77;21041;-72
2021/03/29 03:07:00;;;;;;;28.83;15.05;;;;;;;0.01;76.88;99508.88;1824571;78;21150;-72
2021/03/29 03:09:26;;;;;;;29.95;14.38;;;;;;;0.03;75.74;99507.69;1824558;77;21087;-72
2021/03/29 03:11:53;;;;;;;24.50;13.60;;;;;;;-0.01;75.35;99499.70;1824613;78;21114;-72
2021/03/29 03:14:19;;;;;;;38.65;16.25;;;;;;;-0.09;75.01;99505.08;1797077;78;22081;-72
2021/03/29 03:16:45;;;;;;;31.90;15.40;;;;;;;-0.17;75.03;99509.98;1824580;77;21142;-72
2021/03/29 03:19:11;;;;;;;43.10;19.55;;;;;;;-0.23;77.08;99508.50;1824519;78;21570;-72
2021/03/29 03:21:37;;;;;;;27.00;14.15;;;;;;;-0.20;76.50;99510.80;1824628;77;20998;-72
2021/03/29 03:24:05;;;;;;;32.05;15.88;;;;;;;-0.21;75.40;99503.83;1824672;78;21109;-72
2021/03/29 03:26:31;;;;;;;34.25;16.57;;;;;;;-0.32;76.51;99506.37;1824510;77;21129;-72
2021/03/29 03:28:58;;;;;;;35.40;15.70;;;;;;;-0.35;75.83;99511.53;1824449;78;21121;-72
2021/03/29 03:31:24;;;;;;;33.05;15.58;;;;;;;-0.35;76.73;99514.19;1831735;77;21482;-72
2021/03/29 03:33:51;;;;;;;42.88;17.15;;;;;;;-0.33;78.18;99517.54;1832694;78;21538;-72
2021/03/29 03:36:19;;;;;;;38.45;19.42;;;;;;;-0.26;77.84;99516.31;1832741;77;21035;-72
2021/03/29 03:38:47;;;;;;;32.55;16.12;;;;;;;-0.20;77.89;99519.63;1832681;78;21459;-72
2021/03/29 03:41:24;;;;;;;42.17;20.80;;;;;;;-0.21;75.88;99516.64;1832696;77;21066;-73
2021/03/29 03:43:55;;;;;;;50.78;20.48;;;;;;;-0.23;77.14;99517.33;1832712;78;21069;-72
2021/03/29 03:46:31;;;;;;;35.13;20.55;;;;;;;-0.21;76.74;99516.64;1832623;77;21558;-72
2021/03/29 03:49:05;;;;;;;42.03;18.87;;;;;;;-0.16;76.51;99514.30;1804894;78;21074;-71
2021/03/29 03:51:31;;;;;;;39.05;21.60;;;;;;;-0.18;77.29;99513.62;1831786;78;21195;-72
2021/03/29 03:53:57;;;;;;;44.25;22.73;;;;;;;-0.13;77.46;99520.59;1832696;78;21109;-72
2021/03/29 03:56:23;;;;;;;46.40;27.25;;;;;;;-0.12;76.59;99520.92;1832726;77;21089;-72
2021/03/29 03:58:51;;;;;;;40.90;20.70;;;;;;;-0.14;77.30;99516.78;1832660;78;21137;-72
2021/03/29 04:01:17;;;;;;;50.12;24.05;;;;;;;-0.16;75.90;99518.80;1832638;77;21038;-72
2021/03/29 04:03:44;;;;;;;52.93;24.70;;;;;;;-0.20;76.41;99521.47;1832687;78;22073;-72
2021/03/29 04:06:10;;;;;;;52.73;24.77;;;;;;;-0.20;75.45;99522.80;1832549;77;21435;-73
2021/03/29 04:08:36;;;;;;;53.00;22.22;;;;;;;-0.26;77.69;99524.81;1832638;78;21098;-72
2021/03/29 04:11:04;;;;;;;62.62;26.12;;;;;;;-0.23;76.86;99519.98;1832596;77;21141;-72
2021/03/29 04:13:31;;;;;;;54.08;23.83;;;;;;;-0.25;76.86;99510.52;1832667;78;21074;-72
2021/03/29 04:16:00;;;;;;;49.20;22.17;;;;;;;-0.26;77.69;99515.48;1832682;77;22241;-72
2021/03/29 04:18:27;;;;;;;47.88;21.12;;;;;;;-0.21;76.23;99513.97;1832690;78;21105;-72
2021/03/29 04:20:53;;;;;;;41.90;20.48;;;;;;;-0.16;76.09;99516.13;1832694;77;21097;-72
2021/03/29 04:23:22;;;;;;;43.30;20.00;;;;;;;-0.13;76.40;99520.59;1832639;78;21535;-72
2021/03/29 04:25:48;;;;;;;45.40;23.67;;;;;;;-0.09;77.32;99522.39;1832779;77;21444;-72
2021/03/29 04:28:14;;;;;;;58.58;27.58;;;;;;;-0.07;78.00;99523.91;1832675;78;21237;-72
2021/03/29 04:30:40;;;;;;;59.38;28.42;;;;;;;-0.01;77.42;99526.35;1828728;77;21094;-72
2021/03/29 04:33:07;;;;;;;53.05;27.75;;;;;;;0.00;77.51;99528.04;1824579;78;21142;-72
2021/03/29 04:35:33;;;;;;;53.33;26.82;;;;;;;0.02;77.61;99526.02;1824473;77;21101;-72
2021/03/29 04:37:59;;;;;;;61.55;28.65;;;;;;;0.04;77.56;99537.33;1824515;78;21141;-72
2021/03/29 04:40:26;;;;;;;49.13;23.22;;;;;;;0.09;77.06;99536.82;1824469;77;21257;-72
2021/03/29 04:42:52;;;;;;;55.03;24.45;;;;;;;0.07;77.77;99542.80;1824467;78;21130;-72
2021/03/29 04:45:18;;;;;;;60.33;28.10;;;;;;;0.09;77.08;99540.31;1824510;77;21079;-72
2021/03/29 04:47:45;;;;;;;51.33;24.67;;;;;;;0.12;77.70;99539.95;1824610;78;21129;-72
2021/03/29 04:50:13;;;;;;;50.28;23.55;;;;;;;0.17;76.89;99544.27;1797179;78;21114;-72
2021/03/29 04:52:40;;;;;;;38.30;19.43;;;;;;;0.22;76.94;99535.22;1824936;78;22128;-72
2021/03/29 04:55:08;;;;;;;31.48;17.42;;;;;;;0.25;76.80;99540.19;1824532;77;21400;-72
2021/03/29 04:57:34;;;;;;;35.33;16.48;;;;;;;0.36;76.37;99540.81;1824802;78;21503;-72
2021/03/29 05:00:00;;;;;;;40.10;19.20;;;;;;;0.46;75.97;99536.90;1824619;77;21276;-72
2021/03/29 05:02:26;;;;;;;47.60;22.05;;;;;;;0.53;75.80;99539.69;1824802;78;21535;-72
2021/03/29 05:04:52;;;;;;;47.88;24.25;;;;;;;0.64;76.67;99537.92;1824732;77;21188;-72
2021/03/29 05:07:18;;;;;;;45.35;20.30;;;;;;;0.77;76.51;99535.97;1824595;78;21173;-72
2021/03/29 05:09:44;;;;;;;42.62;21.30;;;;;;;0.84;75.22;99540.41;1824600;77;21158;-72
2021/03/29 05:12:12;;;;;;;35.70;19.92;;;;;;;0.77;75.56;99550.17;1824743;78;21137;-72
2021/03/29 05:14:39;;;;;;;38.67;20.75;;;;;;;0.76;75.35;99547.66;1824661;77;21071;-72
2021/03/29 05:17:06;;;;;;;38.42;19.02;;;;;;;0.77;76.88;99547.98;1824726;78;21194;-72
2021/03/29 05:19:32;;;;;;;38.92;18.23;;;;;;;0.87;76.75;99543.25;1824664;77;21117;-72
2021/03/29 05:21:59;;;;;;;41.95;20.92;;;;;;;0.92;76.07;99545.36;1824592;78;21031;-72
2021/03/29 05:24:25;;;;;;;39.50;19.85;;;;;;;0.95;76.43;99551.70;1824649;77;21078;-72
2021/03/29 05:26:52;;;;;;;49.27;21.90;;;;;;;0.98;75.54;99555.33;1824643;78;21153;-72
2021/03/29 05:29:18;;;;;;;55.12;22.93;;;;;;;0.93;76.56;99556.36;1797147;78;21189;-72
2021/03/29 05:31:44;;;;;;;41.75;18.85;;;;;;;1.03;75.86;99556.45;1826098;77;21086;-72
2021/03/29 05:34:13;;;;;;;47.33;23.15;;;;;;;1.13;75.44;99555.69;1826677;78;21121;-72
2021/03/29 05:36:39;;;;;;;39.88;20.57;;;;;;;1.20;75.13;99557.13;1826816;77;21035;-72
2021/03/29 05:39:06;;;;;;;38.33;19.98;;;;;;;1.20;76.21;99552.27;1826708;78;21106;-72
2021/03/29 05:41:32;;;;;;;36.17;21.00;;;;;;;1.28;75.89;99552.19;1826621;77;21482;-72
2021/03/29 05:43:58;;;;;;;53.63;25.40;;;;;;;1.35;76.67;99547.27;1826592;78;21130;-72
2021/03/29 05:46:25;;;;;;;66.02;31.12;;;;;;;1.46;76.25;99537.99;1826716;77;21078;-72
2021/03/29 05:48:51;;;;;;;59.83;29.87;;;;;;;1.53;76.03;99534.88;1826642;78;21129;-72
2021/03/29 05:51:17;;;;;;;49.10;25.23;;;;;;;1.59;75.77;99540.00;1826701;77;21534;-72
2021/03/29 05:53:43;;;;;;;45.00;21.60;;;;;;;1.70;75.13;99540.86;1826679;78;21263;-72
2021/03/29 05:56:12;;;;;;;50.20;23.47;;;;;;;1.74;74.88;99535.99;1826639;77;21043;-72
2021/03/29 05:59:06;;;;;;;43.70;22.58;;;;;;;1.77;75.50;99532.42;1826555;78;21110;-72
2021/03/29 06:01:24;;;;;;;38.00;19.40;;;;;;;1.87;75.68;99536.97;1826066;77;21500;-72
2021/03/29 06:03:51;;;;;;;35.25;18.20;;;;;;;2.01;76.03;99535.30;1794750;78;21117;-72
2021/03/29 06:06:20;;;;;;;37.23;18.85;;;;;;;2.12;75.34;99532.12;1826667;77;21185;-72
2021/03/29 06:08:52;;;;;;;37.75;20.20;;;;;;;2.23;75.09;99538.34;1826749;78;21097;-72
2021/03/29 06:11:33;;;;;;;34.58;16.32;;;;;;;2.26;75.01;99541.14;1826611;77;21488;-72
2021/03/29 06:14:18;;;;;;;33.08;18.02;;;;;;;2.34;74.00;99537.02;1826742;78;21069;-72
2021/03/29 06:17:05;;;;;;;30.02;14.87;;;;;;;2.29;74.17;99542.59;1825766;78;21121;-73
2021/03/29 06:19:45;;;;;;;28.65;15.48;;;;;;;2.40;73.75;99546.96;1826687;77;22152;-72
2021/03/29 06:22:34;;;;;;;25.43;15.65;;;;;;;2.41;73.79;99538.42;1826544;78;21150;-72
2021/03/29 06:25:08;;;;;;;27.17;14.58;;;;;;;2.48;74.19;99543.34;1826765;77;21042;-72
2021/03/29 06:27:45;;;;;;;39.85;15.70;;;;;;;2.60;73.81;99538.30;1826630;78;21078;-73
2021/03/29 06:30:20;;;;;;;31.05;19.35;;;;;;;2.65;73.89;99546.08;1826588;77;21023;-71
2021/03/29 06:33:12;;;;;;;50.70;23.40;;;;;;;2.73;74.44;99545.09;1826703;78;22089;-72
2021/03/29 06:35:43;;;;;;;64.32;34.15;;;;;;;2.80;74.02;99545.98;1826363;77;21035;-72
2021/03/29 06:38:16;;;;;;;64.95;32.95;;;;;;;2.81;73.87;99558.35;1826703;78;21105;-72
2021/03/29 06:40:49;;;;;;;51.58;29.45;;;;;;;2.85;73.77;99556.96;1826586;77;21034;-72
2021/03/29 06:43:28;;;;;;;53.38;29.87;;;;;;;2.88;73.37;99558.42;1822810;78;21475;-71
2021/03/29 06:46:00;;;;;;;53.83;28.07;;;;;;;2.90;73.34;99555.03;1826604;77;21252;-72
2021/03/29 06:48:31;;;;;;;56.65;29.10;;;;;;;3.00;73.35;99560.39;1826710;78;21487;-72
2021/03/29 06:51:17;;;;;;;68.60;33.78;;;;;;;3.12;73.61;99556.67;1826543;77;21060;-72
2021/03/29 06:53:46;;;;;;;58.58;31.77;;;;;;;3.27;73.90;99553.91;1826655;78;21059;-71
2021/03/29 06:56:33;;;;;;;52.78;29.52;;;;;;;3.49;73.43;99551.45;1826581;77;21142;-72
2021/03/29 06:59:15;;;;;;;59.48;26.20;;;;;;;3.68;73.02;99545.92;1826722;78;21191;-72
2021/03/29 07:01:52;;;;;;;53.85;28.62;;;;;;;3.91;72.70;99546.94;1826485;77;21043;-71
2021/03/29 07:04:20;;;;;;;52.88;26.55;;;;;;;4.10;72.37;99548.05;1825794;78;28744;-72
2021/03/29 07:06:47;;;;;;;45.45;21.20;;;;;;;4.29;70.53;99548.65;1826764;78;21048;-72
2021/03/29 07:09:15;;;;;;;41.40;23.27;;;;;;;4.45;69.29;99537.55;1826593;78;21086;-72
2021/03/29 07:11:41;;;;;;;55.48;27.98;;;;;;;4.58;68.68;99532.70;1826621;77;21194;-72
2021/03/29 07:14:07;;;;;;;42.27;23.12;;;;;;;4.67;68.40;99535.50;1826506;78;21538;-72
2021/03/29 07:16:34;;;;;;;42.43;23.77;;;;;;;4.77;68.05;99532.41;1826605;77;21495;-72
2021/03/29 07:19:04;;;;;;;55.55;27.52;;;;;;;4.91;67.12;99527.88;1826571;78;21125;-72
2021/03/29 07:21:30;;;;;;;42.70;22.75;;;;;;;5.02;66.41;99530.77;1826656;77;21078;-72
2021/03/29 07:24:02;;;;;;;60.45;36.00;;;;;;;5.12;65.93;99529.52;1794720;78;21289;-72
2021/03/29 07:26:54;;;;;;;63.58;35.10;;;;;;;5.21;66.26;99528.27;1824876;77;21626;-72
2021/03/29 07:29:28;;;;;;;104.95;48.40;;;;;;;5.38;65.88;99531.69;1826584;78;21471;-72
2021/03/29 07:32:05;;;;;;;67.92;36.68;;;;;;;5.54;65.62;99530.91;1825371;78;21149;-72
2021/03/29 07:34:51;;;;;;;67.97;33.40;;;;;;;5.65;64.89;99527.08;1820122;77;21078;-71
2021/03/29 07:37:47;;;;;;;67.47;31.70;;;;;;;5.72;65.60;99523.00;1824567;78;21252;-72
2021/03/29 07:40:22;;;;;;;48.80;25.10;;;;;;;5.92;64.62;99522.46;1824470;77;21078;-72
2021/03/29 07:42:52;;;;;;;46.75;25.35;;;;;;;6.07;64.66;99522.20;1824554;78;21020;-72
2021/03/29 07:45:22;;;;;;;41.58;25.15;;;;;;;6.22;64.58;99528.63;1824262;77;21046;-72
2021/03/29 07:47:54;;;;;;;64.03;50.28;;;;;;;6.42;65.10;99529.37;1824384;78;21405;-72
2021/03/29 07:50:35;;;;;;;39.13;26.65;;;;;;;6.62;64.86;99527.89;1819893;77;21272;-71
2021/03/29 07:53:04;;;;;;;107.27;55.65;;;;;;;6.88;64.24;99532.27;1824514;78;21118;-72
2021/03/29 07:55:52;;;;;;;;;;;;;;;7.11;64.00;99534.89;1827318;77;21023;-72
2021/03/29 07:58:20;;;;;;;126.90;75.87;;;;;;;7.36;62.67;99534.36;1823086;77;20212;-72
2021/03/29 08:00:48;;;;;;;100.70;60.95;;;;;;;7.51;61.95;99534.80;1824602;77;21062;-72
2021/03/29 08:03:20;;;;;;;93.97;50.45;;;;;;;7.66;61.93;99534.98;1824675;78;21193;-72
2021/03/29 08:05:50;;;;;;;72.42;34.15;;;;;;;7.84;62.26;99534.98;1824549;77;21019;-72
2021/03/29 08:08:33;;;;;;;87.20;41.45;;;;;;;7.95;61.29;99538.30;1824580;78;21086;-71
2021/03/29 08:11:19;;;;;;;91.15;38.65;;;;;;;7.99;60.18;99542.70;1824472;77;21023;-71
2021/03/29 08:16:29;;;;;;;46.50;24.23;;;;;;;8.12;59.92;99531.23;1859590;76;22617;-71
2021/03/29 08:19:17;;;;;;;42.43;22.20;;;;;;;8.26;60.15;99525.12;1827353;78;20971;-72
2021/03/29 08:22:04;;;;;;;31.65;17.55;;;;;;;8.44;59.86;99527.80;1827487;77;21494;-73
2021/03/29 08:24:43;;;;;;;41.48;22.17;;;;;;;8.61;59.64;99523.11;1825188;77;21125;-72
2021/03/29 08:27:21;;;;;;;44.93;23.47;;;;;;;8.74;58.83;99524.27;1827335;78;21062;-72
2021/03/29 08:29:53;;;;;;;45.40;25.62;;;;;;;8.90;59.20;99524.96;1827405;77;21403;-72
2021/03/29 08:32:31;;;;;;;61.20;31.80;;;;;;;9.12;59.57;99523.04;1827316;78;21086;-71
2021/03/29 08:35:09;;;;;;;37.70;20.17;;;;;;;9.26;58.99;99517.70;1827260;77;21242;-72
2021/03/29 08:37:50;;;;;;;40.08;22.42;;;;;;;9.35;58.91;99514.95;1827303;78;21058;-71
2021/03/29 08:40:30;;;;;;;59.95;27.58;;;;;;;9.42;58.37;99508.06;1827287;77;21098;-72
2021/03/29 08:43:03;;;;;;;39.92;22.10;;;;;;;9.56;57.03;99504.04;1826444;78;21098;-71
2021/03/29 08:45:29;;;;;;;28.05;17.62;;;;;;;9.57;57.52;99500.27;1827391;77;21031;-72
2021/03/29 08:47:58;;;;;;;45.40;23.20;;;;;;;9.65;57.17;99501.79;1827313;78;21182;-72
2021/03/29 08:50:32;;;;;;;38.60;20.12;;;;;;;9.71;57.03;99500.32;1827431;77;21117;-73
2021/03/29 08:53:02;;;;;;;26.95;14.70;;;;;;;9.78;55.77;99505.61;1826186;78;21082;-73
2021/03/29 08:55:32;;;;;;;28.40;14.50;;;;;;;9.80;56.10;99508.89;1827221;77;21058;-72
2021/03/29 08:57:58;;;;;;;31.48;16.70;;;;;;;9.91;56.12;99512.09;1826478;78;21094;-72
2021/03/29 09:00:30;;;;;;;27.80;14.87;;;;;;;10.07;55.90;99513.24;1827254;77;21134;-72
2021/03/29 09:02:56;;;;;;;29.30;14.07;;;;;;;10.17;55.63;99517.00;1827349;78;21511;-72
2021/03/29 09:05:24;;;;;;;26.07;13.10;;;;;;;10.30;55.69;99521.33;1827250;77;21507;-71
2021/03/29 09:07:52;;;;;;;24.43;12.35;;;;;;;10.48;55.33;99512.72;1827286;78;21122;-71
2021/03/29 09:10:27;;;;;;;22.70;11.80;;;;;;;10.56;55.06;99509.61;1827387;77;21027;-72
2021/03/29 09:13:02;;;;;;;25.80;11.57;;;;;;;10.74;55.75;99507.50;1827406;78;22012;-72
2021/03/29 09:15:31;;;;;;;21.40;9.63;;;;;;;11.01;55.70;99503.61;1827051;77;21495;-71
2021/03/29 09:18:05;;;;;;;22.58;11.48;;;;;;;11.25;54.50;99503.45;1827258;78;21090;-72
2021/03/29 09:20:48;;;;;;;18.48;8.18;;;;;;;11.40;53.48;99492.83;1827316;77;21086;-71
2021/03/29 09:23:19;;;;;;;27.87;19.12;;;;;;;11.40;51.10;99488.77;1827251;78;21062;-72
2021/03/29 09:25:51;;;;;;;16.20;9.13;;;;;;;11.73;53.01;99495.19;1827152;77;21195;-72
2021/03/29 09:31:03;;;;;;;34.38;18.10;;;;;;;11.94;51.69;99497.11;1785458;79;21420;-72
2021/03/29 09:33:30;;;;;;;59.50;33.10;;;;;;;12.03;52.44;99498.84;1790383;80;21477;-72
2021/03/29 09:35:59;;;;;;;53.42;24.77;;;;;;;12.17;51.29;99495.22;1790186;80;21469;-72
2021/03/29 09:38:35;;;;;;;36.60;16.30;;;;;;;12.46;51.90;99502.59;1749188;80;21204;-72
2021/03/29 09:41:04;;;;;;;87.92;55.83;;;;;;;12.62;51.09;99492.98;1790222;80;21124;-72
2021/03/29 09:43:30;;;;;;;123.05;74.80;;;;;;;12.61;49.00;99492.70;1788451;80;21123;-73
2021/03/29 09:46:04;;;;;;;40.50;21.33;;;;;;;12.78;49.31;99498.56;1790262;80;21032;-73
2021/03/29 09:48:31;;;;;;;33.60;18.85;;;;;;;13.07;48.92;99494.99;1790282;80;21127;-72
2021/03/29 09:50:58;;;;;;;23.60;15.38;;;;;;;13.13;48.55;99487.98;1790249;80;21187;-72
2021/03/29 09:53:33;;;;;;;25.72;12.47;;;;;;;13.30;48.35;99491.13;1790159;80;21135;-72
2021/03/29 09:56:04;;;;;;;13.95;7.55;;;;;;;13.64;46.49;99484.26;1790243;80;21453;-72
2021/03/29 09:58:32;;;;;;;12.50;6.33;;;;;;;13.70;45.77;99480.48;1790150;80;21119;-72
2021/03/29 10:01:23;;;;;;;9.13;5.12;;;;;;;13.79;46.07;99465.81;1790270;80;21048;-72
2021/03/29 10:03:57;;;;;;;12.70;5.67;;;;;;;13.80;44.03;99469.63;1790334;80;21244;-72
2021/03/29 10:06:25;;;;;;;14.25;8.33;;;;;;;13.77;45.85;99462.00;1789746;78;21082;-72
2021/03/29 10:09:04;;;;;;;14.10;6.42;;;;;;;13.67;44.33;99463.83;1790342;80;21508;-72
2021/03/29 10:11:46;;;;;;;12.40;5.37;;;;;;;13.58;43.99;99466.78;1789629;80;21032;-72
2021/03/29 10:14:16;;;;;;;14.20;7.58;;;;;;;13.38;43.30;99464.23;1789817;80;21089;-72
2021/03/29 10:16:46;;;;;;;13.90;7.78;;;;;;;13.42;44.07;99465.91;1758336;79;22089;-72
2021/03/29 10:19:18;;;;;;;10.63;5.42;;;;;;;13.47;44.45;99462.65;1743444;82;21541;-72
2021/03/29 10:22:09;;;;;;;10.80;5.28;;;;;;;13.62;44.25;99466.01;1716322;82;21112;-72
2021/03/29 10:25:06;;;;;;;10.10;6.65;;;;;;;13.73;44.31;99458.70;1743519;81;21072;-72
2021/03/29 10:27:50;;;;;;;7.83;4.33;;;;;;;13.90;43.47;99463.95;1743551;82;21121;-72
2021/03/29 10:30:26;;;;;;;5.47;2.55;;;;;;;13.88;42.41;99456.59;1743471;81;22005;-72
2021/03/29 10:32:58;;;;;;;13.68;7.12;;;;;;;14.16;40.47;99454.77;1743528;82;21080;-71
2021/03/29 10:35:26;;;;;;;15.48;5.50;;;;;;;14.21;41.75;99453.44;1743496;81;21152;-72
2021/03/29 10:37:52;;;;;;;8.65;4.70;;;;;;;14.49;41.16;99449.97;1743697;82;21533;-72
2021/03/29 10:40:18;;;;;;;17.52;6.75;;;;;;;14.56;40.93;99446.44;1743460;81;21045;-72
2021/03/29 10:42:45;;;;;;;20.25;11.93;;;;;;;14.60;40.39;99445.61;1743480;82;21198;-72
2021/03/29 10:45:15;;;;;;;83.47;29.77;;;;;;;14.76;40.43;99441.53;1743387;81;21450;-72
2021/03/29 10:47:44;;;;;;;38.73;13.40;;;;;;;14.87;39.28;99436.37;1742975;82;21108;-72
2021/03/29 10:50:13;;;;;;;25.75;7.78;;;;;;;14.94;39.74;99434.98;1743547;81;21053;-72
2021/03/29 10:52:40;;;;;;;6.55;3.65;;;;;;;15.11;40.30;99437.97;1742588;82;21827;-72
2021/03/29 10:55:07;;;;;;;11.83;4.20;;;;;;;15.18;39.54;99435.23;1743464;81;21204;-72
2021/03/29 10:57:34;;;;;;;10.63;3.80;;;;;;;15.24;39.08;99434.14;1743503;82;21113;-72
2021/03/29 11:00:00;;;;;;;7.22;3.45;;;;;;;15.24;39.45;99429.23;1743484;81;21144;-72
2021/03/29 11:02:29;;;;;;;9.50;3.98;;;;;;;15.43;38.95;99426.17;1743444;82;21104;-72
2021/03/29 11:04:55;;;;;;;10.90;4.42;;;;;;;15.43;39.85;99430.81;1743632;81;21414;-72
2021/03/29 11:07:21;;;;;;;8.25;3.52;;;;;;;15.46;38.85;99426.16;1743561;82;22166;-72
2021/03/29 11:09:48;;;;;;;7.20;3.60;;;;;;;15.41;38.66;99425.64;1743456;81;21450;-72
2021/03/29 11:12:14;;;;;;;9.18;3.85;;;;;;;15.50;38.67;99429.44;1743441;82;21172;-72
2021/03/29 11:14:40;;;;;;;8.93;4.22;;;;;;;15.58;38.80;99428.05;1743414;81;21208;-72
2021/03/29 11:17:08;;;;;;;8.55;3.95;;;;;;;15.61;37.90;99427.51;1782006;79;21406;-72
2021/03/29 11:19:34;;;;;;;13.10;4.10;;;;;;;15.62;38.24;99425.05;1786327;79;21267;-72
2021/03/29 11:22:00;;;;;;;17.20;10.75;;;;;;;15.63;38.43;99416.30;1785989;80;21124;-72
2021/03/29 11:24:26;;;;;;;14.13;7.25;;;;;;;15.65;38.32;99418.23;1785974;79;21110;-72
2021/03/29 11:26:52;;;;;;;14.40;7.28;;;;;;;15.76;37.65;99412.98;1785974;80;21078;-72
2021/03/29 11:29:18;;;;;;;12.28;5.90;;;;;;;15.67;37.87;99415.48;1786077;80;21147;-72
2021/03/29 11:31:45;;;;;;;17.80;7.92;;;;;;;15.57;37.41;99416.03;1785910;79;21204;-72
2021/03/29 11:34:11;;;;;;;16.82;9.48;;;;;;;15.41;37.20;99418.81;1786045;80;21125;-72
2021/03/29 11:36:39;;;;;;;11.40;6.65;;;;;;;15.26;37.46;99413.92;1786020;79;21059;-71
2021/03/29 11:39:06;;;;;;;12.47;7.28;;;;;;;15.30;38.07;99421.85;1786044;80;21149;-72
2021/03/29 11:41:33;;;;;;;12.28;6.10;;;;;;;15.39;38.28;99426.47;1785992;79;21098;-71